sensor_id;sensor_type;location;lat;lon;timestamp;P1;durP1;ratioP1;P2;durP2;ratioP2
7080;SDS011;3582;51.506;11.948;2023-08-21T00:00:05;10.73;;;9.53;;
7080;SDS011;3582;51.506;11.948;2023-08-21T00:02:31;10.83;;;9.87;;
7080;SDS011;3582;51.506;11.948;2023-08-21T00:04:57;10.60;;;9.33;;
7080;SDS011;3582;51.506;11.948;2023-08-21T00:07:23;11.37;;;10.17;;
7080;SDS011;3582;51.506;11.948;2023-08-21T00:09:49;9.60;;;8.63;;
7080;SDS011;3582;51.506;11.948;2023-08-21T00:12:16;11.77;;;9.53;;
7080;SDS011;3582;51.506;11.948;2023-08-21T00:14:42;9.27;;;8.63;;
7080;SDS011;3582;51.506;11.948;2023-08-21T00:17:08;9.33;;;8.53;;
7080;SDS011;3582;51.506;11.948;2023-08-21T00:19:34;11.30;;;9.43;;
7080;SDS011;3582;51.506;11.948;2023-08-21T00:22:00;9.80;;;8.90;;
7080;SDS011;3582;51.506;11.948;2023-08-21T00:24:26;10.77;;;9.87;;
7080;SDS011;3582;51.506;11.948;2023-08-21T00:26:52;11.83;;;9.90;;
7080;SDS011;3582;51.506;11.948;2023-08-21T00:29:18;10.73;;;8.73;;
7080;SDS011;3582;51.506;11.948;2023-08-21T00:31:44;10.27;;;9.40;;
7080;SDS011;3582;51.506;11.948;2023-08-21T00:34:10;11.23;;;10.03;;
7080;SDS011;3582;51.506;11.948;2023-08-21T00:36:36;10.80;;;9.20;;
7080;SDS011;3582;51.506;11.948;2023-08-21T00:39:02;18.27;;;10.80;;
7080;SDS011;3582;51.506;11.948;2023-08-21T00:41:28;11.00;;;10.00;;
7080;SDS011;3582;51.506;11.948;2023-08-21T00:43:54;11.20;;;9.43;;
7080;SDS011;3582;51.506;11.948;2023-08-21T00:46:20;10.10;;;8.60;;
7080;SDS011;3582;51.506;11.948;2023-08-21T00:48:46;10.27;;;9.13;;
7080;SDS011;3582;51.506;11.948;2023-08-21T00:51:12;10.97;;;9.53;;
7080;SDS011;3582;51.506;11.948;2023-08-21T00:53:39;10.60;;;9.70;;
7080;SDS011;3582;51.506;11.948;2023-08-21T00:56:05;9.70;;;8.93;;
7080;SDS011;3582;51.506;11.948;2023-08-21T00:58:31;9.87;;;9.03;;
7080;SDS011;3582;51.506;11.948;2023-08-21T01:00:57;10.83;;;9.70;;
7080;SDS011;3582;51.506;11.948;2023-08-21T01:03:23;12.83;;;9.37;;
7080;SDS011;3582;51.506;11.948;2023-08-21T01:05:49;9.27;;;8.33;;
7080;SDS011;3582;51.506;11.948;2023-08-21T01:08:26;9.97;;;9.07;;
7080;SDS011;3582;51.506;11.948;2023-08-21T01:16:01;8.10;;;7.30;;
7080;SDS011;3582;51.506;11.948;2023-08-21T01:18:28;10.23;;;9.23;;
7080;SDS011;3582;51.506;11.948;2023-08-21T01:20:55;11.20;;;8.93;;
7080;SDS011;3582;51.506;11.948;2023-08-21T01:23:28;11.10;;;9.97;;
7080;SDS011;3582;51.506;11.948;2023-08-21T01:25:54;9.40;;;8.53;;
7080;SDS011;3582;51.506;11.948;2023-08-21T01:28:20;9.30;;;8.60;;
7080;SDS011;3582;51.506;11.948;2023-08-21T01:30:46;12.90;;;9.47;;
7080;SDS011;3582;51.506;11.948;2023-08-21T01:33:13;10.07;;;9.03;;
7080;SDS011;3582;51.506;11.948;2023-08-21T01:35:41;9.77;;;8.77;;
7080;SDS011;3582;51.506;11.948;2023-08-21T01:38:08;10.33;;;9.47;;
7080;SDS011;3582;51.506;11.948;2023-08-21T01:40:34;9.43;;;8.50;;
7080;SDS011;3582;51.506;11.948;2023-08-21T01:43:00;10.03;;;9.13;;
7080;SDS011;3582;51.506;11.948;2023-08-21T01:45:26;11.90;;;9.03;;
7080;SDS011;3582;51.506;11.948;2023-08-21T01:47:52;11.67;;;10.50;;
7080;SDS011;3582;51.506;11.948;2023-08-21T01:50:18;11.93;;;9.40;;
7080;SDS011;3582;51.506;11.948;2023-08-21T01:52:44;11.57;;;8.80;;
7080;SDS011;3582;51.506;11.948;2023-08-21T01:55:10;14.13;;;9.60;;
7080;SDS011;3582;51.506;11.948;2023-08-21T01:57:36;17.10;;;9.57;;
7080;SDS011;3582;51.506;11.948;2023-08-21T02:00:03;9.43;;;8.53;;
7080;SDS011;3582;51.506;11.948;2023-08-21T02:02:29;9.73;;;8.70;;
7080;SDS011;3582;51.506;11.948;2023-08-21T02:04:55;11.10;;;10.00;;
7080;SDS011;3582;51.506;11.948;2023-08-21T02:07:21;10.27;;;9.27;;
7080;SDS011;3582;51.506;11.948;2023-08-21T02:09:47;9.63;;;8.73;;
7080;SDS011;3582;51.506;11.948;2023-08-21T02:12:13;11.17;;;10.17;;
7080;SDS011;3582;51.506;11.948;2023-08-21T02:14:39;10.70;;;9.03;;
7080;SDS011;3582;51.506;11.948;2023-08-21T02:17:05;11.67;;;10.43;;
7080;SDS011;3582;51.506;11.948;2023-08-21T02:19:31;10.43;;;9.47;;
7080;SDS011;3582;51.506;11.948;2023-08-21T02:21:57;12.10;;;11.00;;
7080;SDS011;3582;51.506;11.948;2023-08-21T02:24:23;10.93;;;9.77;;
7080;SDS011;3582;51.506;11.948;2023-08-21T02:26:49;10.90;;;9.93;;
7080;SDS011;3582;51.506;11.948;2023-08-21T02:29:15;10.50;;;9.60;;
7080;SDS011;3582;51.506;11.948;2023-08-21T02:31:41;12.87;;;10.33;;
7080;SDS011;3582;51.506;11.948;2023-08-21T02:34:07;15.80;;;11.40;;
7080;SDS011;3582;51.506;11.948;2023-08-21T02:36:33;13.90;;;11.77;;
7080;SDS011;3582;51.506;11.948;2023-08-21T02:38:59;13.77;;;11.63;;
7080;SDS011;3582;51.506;11.948;2023-08-21T02:41:25;10.70;;;9.63;;
7080;SDS011;3582;51.506;11.948;2023-08-21T02:43:51;15.30;;;11.97;;
7080;SDS011;3582;51.506;11.948;2023-08-21T02:46:17;12.80;;;11.60;;
7080;SDS011;3582;51.506;11.948;2023-08-21T02:48:43;13.17;;;11.77;;
7080;SDS011;3582;51.506;11.948;2023-08-21T02:51:09;13.50;;;11.93;;
7080;SDS011;3582;51.506;11.948;2023-08-21T02:53:35;11.10;;;10.00;;
7080;SDS011;3582;51.506;11.948;2023-08-21T02:56:01;12.10;;;10.90;;
7080;SDS011;3582;51.506;11.948;2023-08-21T02:58:27;15.20;;;11.07;;
7080;SDS011;3582;51.506;11.948;2023-08-21T03:00:53;13.87;;;12.57;;
7080;SDS011;3582;51.506;11.948;2023-08-21T03:03:19;12.57;;;11.33;;
7080;SDS011;3582;51.506;11.948;2023-08-21T03:05:45;12.47;;;11.23;;
7080;SDS011;3582;51.506;11.948;2023-08-21T03:08:10;12.03;;;10.73;;
7080;SDS011;3582;51.506;11.948;2023-08-21T03:10:36;12.13;;;11.00;;
7080;SDS011;3582;51.506;11.948;2023-08-21T03:13:02;13.13;;;11.57;;
7080;SDS011;3582;51.506;11.948;2023-08-21T03:15:28;15.10;;;10.97;;
7080;SDS011;3582;51.506;11.948;2023-08-21T03:17:55;15.77;;;11.80;;
7080;SDS011;3582;51.506;11.948;2023-08-21T03:20:21;13.87;;;10.83;;
7080;SDS011;3582;51.506;11.948;2023-08-21T03:22:47;13.40;;;12.20;;
7080;SDS011;3582;51.506;11.948;2023-08-21T03:25:13;15.43;;;12.20;;
7080;SDS011;3582;51.506;11.948;2023-08-21T03:27:39;13.60;;;12.20;;
7080;SDS011;3582;51.506;11.948;2023-08-21T03:30:08;13.20;;;11.93;;
7080;SDS011;3582;51.506;11.948;2023-08-21T03:32:34;14.03;;;12.00;;
7080;SDS011;3582;51.506;11.948;2023-08-21T03:35:00;14.33;;;13.03;;
7080;SDS011;3582;51.506;11.948;2023-08-21T03:37:26;13.63;;;12.43;;
7080;SDS011;3582;51.506;11.948;2023-08-21T03:39:52;15.10;;;13.63;;
7080;SDS011;3582;51.506;11.948;2023-08-21T03:42:18;13.10;;;11.80;;
7080;SDS011;3582;51.506;11.948;2023-08-21T03:44:44;14.23;;;12.83;;
7080;SDS011;3582;51.506;11.948;2023-08-21T03:47:13;20.73;;;14.30;;
7080;SDS011;3582;51.506;11.948;2023-08-21T03:49:39;13.93;;;12.03;;
7080;SDS011;3582;51.506;11.948;2023-08-21T03:52:05;13.70;;;12.50;;
7080;SDS011;3582;51.506;11.948;2023-08-21T03:54:31;18.50;;;13.37;;
7080;SDS011;3582;51.506;11.948;2023-08-21T03:56:57;13.47;;;11.93;;
7080;SDS011;3582;51.506;11.948;2023-08-21T03:59:23;14.33;;;12.90;;
7080;SDS011;3582;51.506;11.948;2023-08-21T04:01:52;19.10;;;14.23;;
7080;SDS011;3582;51.506;11.948;2023-08-21T04:04:18;14.37;;;12.80;;
7080;SDS011;3582;51.506;11.948;2023-08-21T04:06:44;13.57;;;12.20;;
7080;SDS011;3582;51.506;11.948;2023-08-21T04:09:10;14.67;;;13.17;;
7080;SDS011;3582;51.506;11.948;2023-08-21T04:11:36;13.23;;;12.07;;
7080;SDS011;3582;51.506;11.948;2023-08-21T04:14:03;14.17;;;12.63;;
7080;SDS011;3582;51.506;11.948;2023-08-21T04:16:28;13.27;;;12.07;;
7080;SDS011;3582;51.506;11.948;2023-08-21T04:18:55;17.13;;;12.87;;
7080;SDS011;3582;51.506;11.948;2023-08-21T04:21:21;15.20;;;13.60;;
7080;SDS011;3582;51.506;11.948;2023-08-21T04:23:48;16.40;;;13.13;;
7080;SDS011;3582;51.506;11.948;2023-08-21T04:26:13;13.90;;;12.50;;
7080;SDS011;3582;51.506;11.948;2023-08-21T04:28:40;21.10;;;13.17;;
7080;SDS011;3582;51.506;11.948;2023-08-21T04:31:06;13.63;;;12.10;;
7080;SDS011;3582;51.506;11.948;2023-08-21T04:33:32;13.93;;;12.47;;
7080;SDS011;3582;51.506;11.948;2023-08-21T04:35:58;19.20;;;12.13;;
7080;SDS011;3582;51.506;11.948;2023-08-21T04:38:24;12.47;;;11.30;;
7080;SDS011;3582;51.506;11.948;2023-08-21T04:40:50;13.63;;;11.83;;
7080;SDS011;3582;51.506;11.948;2023-08-21T04:43:17;15.60;;;10.80;;
7080;SDS011;3582;51.506;11.948;2023-08-21T04:45:49;12.33;;;11.20;;
7080;SDS011;3582;51.506;11.948;2023-08-21T04:48:15;14.27;;;12.50;;
7080;SDS011;3582;51.506;11.948;2023-08-21T04:50:41;19.07;;;11.80;;
7080;SDS011;3582;51.506;11.948;2023-08-21T04:53:07;14.87;;;11.67;;
7080;SDS011;3582;51.506;11.948;2023-08-21T04:55:33;13.67;;;11.50;;
7080;SDS011;3582;51.506;11.948;2023-08-21T04:57:59;12.43;;;11.33;;
7080;SDS011;3582;51.506;11.948;2023-08-21T05:00:25;15.83;;;12.27;;
7080;SDS011;3582;51.506;11.948;2023-08-21T05:02:51;12.03;;;10.83;;
7080;SDS011;3582;51.506;11.948;2023-08-21T05:05:17;11.53;;;10.50;;
7080;SDS011;3582;51.506;11.948;2023-08-21T05:07:43;17.67;;;12.80;;
7080;SDS011;3582;51.506;11.948;2023-08-21T05:10:09;13.40;;;10.97;;
7080;SDS011;3582;51.506;11.948;2023-08-21T05:12:35;11.50;;;10.40;;
7080;SDS011;3582;51.506;11.948;2023-08-21T05:15:01;23.80;;;12.30;;
7080;SDS011;3582;51.506;11.948;2023-08-21T05:17:27;11.73;;;10.63;;
7080;SDS011;3582;51.506;11.948;2023-08-21T05:19:53;11.90;;;10.23;;
7080;SDS011;3582;51.506;11.948;2023-08-21T05:22:19;12.17;;;10.63;;
7080;SDS011;3582;51.506;11.948;2023-08-21T05:24:45;10.70;;;9.80;;
7080;SDS011;3582;51.506;11.948;2023-08-21T05:27:11;13.37;;;10.50;;
7080;SDS011;3582;51.506;11.948;2023-08-21T05:29:37;11.20;;;10.30;;
7080;SDS011;3582;51.506;11.948;2023-08-21T05:32:03;17.23;;;10.37;;
7080;SDS011;3582;51.506;11.948;2023-08-21T05:34:29;10.93;;;9.97;;
7080;SDS011;3582;51.506;11.948;2023-08-21T05:36:55;11.80;;;10.50;;
7080;SDS011;3582;51.506;11.948;2023-08-21T05:39:21;11.50;;;9.90;;
7080;SDS011;3582;51.506;11.948;2023-08-21T05:41:47;10.50;;;9.57;;
7080;SDS011;3582;51.506;11.948;2023-08-21T05:44:13;11.27;;;10.10;;
7080;SDS011;3582;51.506;11.948;2023-08-21T05:46:39;10.63;;;9.17;;
7080;SDS011;3582;51.506;11.948;2023-08-21T05:49:05;11.93;;;9.80;;
7080;SDS011;3582;51.506;11.948;2023-08-21T05:51:31;11.37;;;10.00;;
7080;SDS011;3582;51.506;11.948;2023-08-21T05:53:56;11.50;;;9.87;;
7080;SDS011;3582;51.506;11.948;2023-08-21T05:56:22;10.37;;;9.20;;
7080;SDS011;3582;51.506;11.948;2023-08-21T05:58:48;9.97;;;9.10;;
7080;SDS011;3582;51.506;11.948;2023-08-21T06:01:14;14.77;;;8.93;;
7080;SDS011;3582;51.506;11.948;2023-08-21T06:03:40;16.50;;;9.80;;
7080;SDS011;3582;51.506;11.948;2023-08-21T06:06:06;12.50;;;8.80;;
7080;SDS011;3582;51.506;11.948;2023-08-21T06:08:32;10.13;;;8.50;;
7080;SDS011;3582;51.506;11.948;2023-08-21T06:10:58;9.50;;;8.70;;
7080;SDS011;3582;51.506;11.948;2023-08-21T06:13:24;9.17;;;8.27;;
7080;SDS011;3582;51.506;11.948;2023-08-21T06:15:51;9.10;;;8.23;;
7080;SDS011;3582;51.506;11.948;2023-08-21T06:18:17;15.67;;;9.83;;
7080;SDS011;3582;51.506;11.948;2023-08-21T06:20:43;10.80;;;9.20;;
7080;SDS011;3582;51.506;11.948;2023-08-21T06:23:09;11.73;;;9.67;;
7080;SDS011;3582;51.506;11.948;2023-08-21T06:25:35;16.37;;;9.33;;
7080;SDS011;3582;51.506;11.948;2023-08-21T06:28:01;14.97;;;8.77;;
7080;SDS011;3582;51.506;11.948;2023-08-21T06:30:27;10.13;;;8.43;;
7080;SDS011;3582;51.506;11.948;2023-08-21T06:32:53;11.63;;;9.07;;
7080;SDS011;3582;51.506;11.948;2023-08-21T06:35:19;11.33;;;8.60;;
7080;SDS011;3582;51.506;11.948;2023-08-21T06:37:45;10.37;;;8.70;;
7080;SDS011;3582;51.506;11.948;2023-08-21T06:40:11;11.20;;;9.40;;
7080;SDS011;3582;51.506;11.948;2023-08-21T06:42:37;9.30;;;8.40;;
7080;SDS011;3582;51.506;11.948;2023-08-21T06:45:04;9.13;;;8.20;;
7080;SDS011;3582;51.506;11.948;2023-08-21T06:47:30;9.20;;;8.33;;
7080;SDS011;3582;51.506;11.948;2023-08-21T06:49:56;10.57;;;9.17;;
7080;SDS011;3582;51.506;11.948;2023-08-21T06:52:22;8.90;;;7.97;;
7080;SDS011;3582;51.506;11.948;2023-08-21T06:54:48;10.17;;;9.17;;
7080;SDS011;3582;51.506;11.948;2023-08-21T06:57:14;10.27;;;9.37;;
7080;SDS011;3582;51.506;11.948;2023-08-21T06:59:40;11.37;;;10.20;;
7080;SDS011;3582;51.506;11.948;2023-08-21T07:02:06;12.07;;;10.87;;
7080;SDS011;3582;51.506;11.948;2023-08-21T07:04:32;12.10;;;10.57;;
7080;SDS011;3582;51.506;11.948;2023-08-21T07:06:58;11.47;;;10.37;;
7080;SDS011;3582;51.506;11.948;2023-08-21T07:09:24;14.27;;;12.77;;
7080;SDS011;3582;51.506;11.948;2023-08-21T07:11:50;13.17;;;11.97;;
7080;SDS011;3582;51.506;11.948;2023-08-21T07:14:16;17.57;;;11.20;;
7080;SDS011;3582;51.506;11.948;2023-08-21T07:16:43;11.50;;;10.50;;
7080;SDS011;3582;51.506;11.948;2023-08-21T07:19:09;12.47;;;11.43;;
7080;SDS011;3582;51.506;11.948;2023-08-21T07:21:35;15.57;;;12.80;;
7080;SDS011;3582;51.506;11.948;2023-08-21T07:24:03;13.53;;;12.13;;
7080;SDS011;3582;51.506;11.948;2023-08-21T07:26:29;12.47;;;11.20;;
7080;SDS011;3582;51.506;11.948;2023-08-21T07:28:55;13.37;;;12.03;;
7080;SDS011;3582;51.506;11.948;2023-08-21T07:31:22;14.60;;;12.20;;
7080;SDS011;3582;51.506;11.948;2023-08-21T07:33:48;14.00;;;12.50;;
7080;SDS011;3582;51.506;11.948;2023-08-21T07:36:13;14.23;;;11.17;;
7080;SDS011;3582;51.506;11.948;2023-08-21T07:38:42;12.57;;;11.43;;
7080;SDS011;3582;51.506;11.948;2023-08-21T07:41:09;14.77;;;11.63;;
7080;SDS011;3582;51.506;11.948;2023-08-21T07:43:35;12.13;;;11.13;;
7080;SDS011;3582;51.506;11.948;2023-08-21T07:46:05;13.27;;;11.97;;
7080;SDS011;3582;51.506;11.948;2023-08-21T07:48:31;12.87;;;11.60;;
7080;SDS011;3582;51.506;11.948;2023-08-21T07:50:57;12.67;;;11.47;;
7080;SDS011;3582;51.506;11.948;2023-08-21T07:53:24;12.13;;;11.10;;
7080;SDS011;3582;51.506;11.948;2023-08-21T07:55:50;12.30;;;11.03;;
7080;SDS011;3582;51.506;11.948;2023-08-21T07:58:16;12.33;;;11.00;;
7080;SDS011;3582;51.506;11.948;2023-08-21T08:00:42;13.20;;;10.80;;
7080;SDS011;3582;51.506;11.948;2023-08-21T08:03:08;13.97;;;11.00;;
7080;SDS011;3582;51.506;11.948;2023-08-21T08:05:35;11.80;;;10.70;;
7080;SDS011;3582;51.506;11.948;2023-08-21T08:08:01;15.50;;;10.47;;
7080;SDS011;3582;51.506;11.948;2023-08-21T08:10:27;11.93;;;10.03;;
7080;SDS011;3582;51.506;11.948;2023-08-21T08:12:53;12.53;;;9.97;;
7080;SDS011;3582;51.506;11.948;2023-08-21T08:15:20;11.77;;;10.77;;
7080;SDS011;3582;51.506;11.948;2023-08-21T08:17:46;11.53;;;10.30;;
7080;SDS011;3582;51.506;11.948;2023-08-21T08:20:12;11.97;;;8.77;;
7080;SDS011;3582;51.506;11.948;2023-08-21T08:22:39;21.63;;;10.27;;
7080;SDS011;3582;51.506;11.948;2023-08-21T08:25:05;9.70;;;8.70;;
7080;SDS011;3582;51.506;11.948;2023-08-21T08:27:31;9.87;;;8.90;;
7080;SDS011;3582;51.506;11.948;2023-08-21T08:29:57;11.27;;;8.17;;
7080;SDS011;3582;51.506;11.948;2023-08-21T08:32:24;13.37;;;9.37;;
7080;SDS011;3582;51.506;11.948;2023-08-21T08:34:50;11.70;;;9.43;;
7080;SDS011;3582;51.506;11.948;2023-08-21T08:37:17;17.50;;;8.90;;
7080;SDS011;3582;51.506;11.948;2023-08-21T08:39:43;8.70;;;7.43;;
7080;SDS011;3582;51.506;11.948;2023-08-21T08:42:09;14.30;;;8.07;;
7080;SDS011;3582;51.506;11.948;2023-08-21T08:44:36;7.40;;;6.60;;
7080;SDS011;3582;51.506;11.948;2023-08-21T08:47:03;10.17;;;7.30;;
7080;SDS011;3582;51.506;11.948;2023-08-21T08:49:29;7.60;;;6.90;;
7080;SDS011;3582;51.506;11.948;2023-08-21T08:51:56;8.53;;;7.57;;
7080;SDS011;3582;51.506;11.948;2023-08-21T08:54:23;9.00;;;6.00;;
7080;SDS011;3582;51.506;11.948;2023-08-21T08:56:52;8.07;;;6.10;;
7080;SDS011;3582;51.506;11.948;2023-08-21T08:59:19;5.37;;;4.90;;
7080;SDS011;3582;51.506;11.948;2023-08-21T09:01:45;5.37;;;4.90;;
7080;SDS011;3582;51.506;11.948;2023-08-21T09:04:11;4.47;;;4.07;;
7080;SDS011;3582;51.506;11.948;2023-08-21T09:06:38;5.47;;;4.60;;
7080;SDS011;3582;51.506;11.948;2023-08-21T09:09:04;4.33;;;3.93;;
7080;SDS011;3582;51.506;11.948;2023-08-21T09:11:31;4.57;;;3.40;;
7080;SDS011;3582;51.506;11.948;2023-08-21T09:13:58;3.67;;;3.37;;
7080;SDS011;3582;51.506;11.948;2023-08-21T09:16:24;3.63;;;3.43;;
7080;SDS011;3582;51.506;11.948;2023-08-21T09:18:54;4.57;;;3.70;;
7080;SDS011;3582;51.506;11.948;2023-08-21T09:21:24;5.67;;;4.00;;
7080;SDS011;3582;51.506;11.948;2023-08-21T09:23:55;6.80;;;3.90;;
7080;SDS011;3582;51.506;11.948;2023-08-21T09:26:22;3.53;;;3.23;;
7080;SDS011;3582;51.506;11.948;2023-08-21T09:28:49;7.00;;;4.43;;
7080;SDS011;3582;51.506;11.948;2023-08-21T09:31:15;4.40;;;3.90;;
7080;SDS011;3582;51.506;11.948;2023-08-21T09:33:42;5.90;;;4.17;;
7080;SDS011;3582;51.506;11.948;2023-08-21T09:36:11;3.90;;;3.60;;
7080;SDS011;3582;51.506;11.948;2023-08-21T09:38:40;5.03;;;4.63;;
7080;SDS011;3582;51.506;11.948;2023-08-21T09:41:06;5.07;;;3.87;;
7080;SDS011;3582;51.506;11.948;2023-08-21T09:43:32;7.17;;;3.83;;
7080;SDS011;3582;51.506;11.948;2023-08-21T09:46:06;4.57;;;3.70;;
7080;SDS011;3582;51.506;11.948;2023-08-21T09:48:32;4.13;;;3.83;;
7080;SDS011;3582;51.506;11.948;2023-08-21T09:50:58;3.40;;;3.17;;
7080;SDS011;3582;51.506;11.948;2023-08-21T09:53:28;5.73;;;3.90;;
7080;SDS011;3582;51.506;11.948;2023-08-21T09:55:55;16.73;;;4.30;;
7080;SDS011;3582;51.506;11.948;2023-08-21T09:58:21;4.20;;;3.60;;
7080;SDS011;3582;51.506;11.948;2023-08-21T10:00:48;6.63;;;4.17;;
7080;SDS011;3582;51.506;11.948;2023-08-21T10:03:15;5.03;;;3.43;;
7080;SDS011;3582;51.506;11.948;2023-08-21T10:05:43;4.87;;;3.00;;
7080;SDS011;3582;51.506;11.948;2023-08-21T10:08:10;6.10;;;3.10;;
7080;SDS011;3582;51.506;11.948;2023-08-21T10:10:38;4.87;;;3.13;;
7080;SDS011;3582;51.506;11.948;2023-08-21T10:13:04;3.50;;;3.20;;
7080;SDS011;3582;51.506;11.948;2023-08-21T10:15:33;3.20;;;3.00;;
7080;SDS011;3582;51.506;11.948;2023-08-21T10:20:45;3.47;;;2.50;;
7080;SDS011;3582;51.506;11.948;2023-08-21T10:23:11;3.83;;;3.53;;
7080;SDS011;3582;51.506;11.948;2023-08-21T10:25:48;3.33;;;3.07;;
7080;SDS011;3582;51.506;11.948;2023-08-21T10:28:19;5.10;;;3.83;;
7080;SDS011;3582;51.506;11.948;2023-08-21T10:30:45;4.77;;;3.63;;
7080;SDS011;3582;51.506;11.948;2023-08-21T10:33:11;3.57;;;3.27;;
7080;SDS011;3582;51.506;11.948;2023-08-21T10:35:37;7.80;;;3.83;;
7080;SDS011;3582;51.506;11.948;2023-08-21T10:38:13;3.70;;;2.70;;
7080;SDS011;3582;51.506;11.948;2023-08-21T10:40:40;3.40;;;3.07;;
7080;SDS011;3582;51.506;11.948;2023-08-21T10:45:54;3.53;;;3.30;;
7080;SDS011;3582;51.506;11.948;2023-08-21T10:48:20;4.50;;;3.40;;
7080;SDS011;3582;51.506;11.948;2023-08-21T10:50:46;4.43;;;4.07;;
7080;SDS011;3582;51.506;11.948;2023-08-21T10:53:12;6.10;;;4.20;;
7080;SDS011;3582;51.506;11.948;2023-08-21T10:55:39;4.97;;;3.70;;
7080;SDS011;3582;51.506;11.948;2023-08-21T10:58:07;3.80;;;3.37;;
7080;SDS011;3582;51.506;11.948;2023-08-21T11:00:36;3.43;;;3.13;;
7080;SDS011;3582;51.506;11.948;2023-08-21T11:03:02;5.33;;;3.77;;
7080;SDS011;3582;51.506;11.948;2023-08-21T11:05:28;3.43;;;3.07;;
7080;SDS011;3582;51.506;11.948;2023-08-21T11:07:54;3.50;;;3.20;;
7080;SDS011;3582;51.506;11.948;2023-08-21T11:10:23;8.20;;;3.77;;
7080;SDS011;3582;51.506;11.948;2023-08-21T11:12:56;6.10;;;4.30;;
7080;SDS011;3582;51.506;11.948;2023-08-21T11:15:23;18.27;;;5.80;;
7080;SDS011;3582;51.506;11.948;2023-08-21T11:18:00;4.17;;;3.83;;
7080;SDS011;3582;51.506;11.948;2023-08-21T11:20:33;3.93;;;3.63;;
7080;SDS011;3582;51.506;11.948;2023-08-21T11:22:59;3.83;;;3.53;;
7080;SDS011;3582;51.506;11.948;2023-08-21T11:25:27;6.90;;;3.63;;
7080;SDS011;3582;51.506;11.948;2023-08-21T11:27:53;5.30;;;4.37;;
7080;SDS011;3582;51.506;11.948;2023-08-21T11:30:21;4.77;;;4.37;;
7080;SDS011;3582;51.506;11.948;2023-08-21T11:32:48;8.23;;;4.40;;
7080;SDS011;3582;51.506;11.948;2023-08-21T11:35:14;5.30;;;4.47;;
7080;SDS011;3582;51.506;11.948;2023-08-21T11:37:43;6.90;;;5.13;;
7080;SDS011;3582;51.506;11.948;2023-08-21T11:40:12;6.10;;;5.00;;
7080;SDS011;3582;51.506;11.948;2023-08-21T11:42:39;4.17;;;3.87;;
7080;SDS011;3582;51.506;11.948;2023-08-21T11:45:05;9.10;;;4.83;;
7080;SDS011;3582;51.506;11.948;2023-08-21T11:47:32;7.10;;;4.50;;
7080;SDS011;3582;51.506;11.948;2023-08-21T11:50:06;6.10;;;4.90;;
7080;SDS011;3582;51.506;11.948;2023-08-21T11:52:32;6.47;;;4.73;;
7080;SDS011;3582;51.506;11.948;2023-08-21T11:55:00;4.83;;;3.97;;
7080;SDS011;3582;51.506;11.948;2023-08-21T11:57:26;3.80;;;3.50;;
7080;SDS011;3582;51.506;11.948;2023-08-21T11:59:55;4.70;;;4.27;;
7080;SDS011;3582;51.506;11.948;2023-08-21T12:02:24;4.40;;;4.00;;
7080;SDS011;3582;51.506;11.948;2023-08-21T12:07:19;7.10;;;4.40;;
7080;SDS011;3582;51.506;11.948;2023-08-21T12:09:48;8.73;;;5.80;;
7080;SDS011;3582;51.506;11.948;2023-08-21T12:12:15;6.80;;;4.47;;
7080;SDS011;3582;51.506;11.948;2023-08-21T12:14:40;4.90;;;4.50;;
7080;SDS011;3582;51.506;11.948;2023-08-21T12:17:06;4.50;;;4.10;;
7080;SDS011;3582;51.506;11.948;2023-08-21T12:19:32;4.70;;;4.40;;
7080;SDS011;3582;51.506;11.948;2023-08-21T12:21:59;6.60;;;5.20;;
7080;SDS011;3582;51.506;11.948;2023-08-21T12:24:24;6.30;;;5.33;;
7080;SDS011;3582;51.506;11.948;2023-08-21T12:26:50;5.53;;;5.00;;
7080;SDS011;3582;51.506;11.948;2023-08-21T12:29:17;6.10;;;5.47;;
7080;SDS011;3582;51.506;11.948;2023-08-21T12:31:43;5.37;;;4.83;;
7080;SDS011;3582;51.506;11.948;2023-08-21T12:34:09;4.17;;;3.77;;
7080;SDS011;3582;51.506;11.948;2023-08-21T12:36:35;7.23;;;5.40;;
7080;SDS011;3582;51.506;11.948;2023-08-21T12:39:05;5.90;;;3.93;;
7080;SDS011;3582;51.506;11.948;2023-08-21T12:41:31;4.87;;;4.30;;
7080;SDS011;3582;51.506;11.948;2023-08-21T12:44:01;4.33;;;3.93;;
7080;SDS011;3582;51.506;11.948;2023-08-21T12:46:33;5.70;;;3.37;;
7080;SDS011;3582;51.506;11.948;2023-08-21T12:48:59;5.03;;;4.63;;
7080;SDS011;3582;51.506;11.948;2023-08-21T12:51:26;4.60;;;4.30;;
7080;SDS011;3582;51.506;11.948;2023-08-21T12:53:52;4.37;;;3.97;;
7080;SDS011;3582;51.506;11.948;2023-08-21T12:56:18;5.57;;;4.60;;
7080;SDS011;3582;51.506;11.948;2023-08-21T12:58:44;4.67;;;4.23;;
7080;SDS011;3582;51.506;11.948;2023-08-21T13:01:10;5.57;;;4.73;;
7080;SDS011;3582;51.506;11.948;2023-08-21T13:03:37;6.10;;;5.17;;
7080;SDS011;3582;51.506;11.948;2023-08-21T13:06:03;5.30;;;4.80;;
7080;SDS011;3582;51.506;11.948;2023-08-21T13:08:29;4.90;;;4.60;;
7080;SDS011;3582;51.506;11.948;2023-08-21T13:10:55;4.00;;;3.70;;
7080;SDS011;3582;51.506;11.948;2023-08-21T13:13:21;6.97;;;4.47;;
7080;SDS011;3582;51.506;11.948;2023-08-21T13:15:47;5.63;;;4.27;;
7080;SDS011;3582;51.506;11.948;2023-08-21T13:18:13;4.30;;;4.00;;
7080;SDS011;3582;51.506;11.948;2023-08-21T13:20:40;4.67;;;4.17;;
7080;SDS011;3582;51.506;11.948;2023-08-21T13:23:06;4.40;;;4.00;;
7080;SDS011;3582;51.506;11.948;2023-08-21T13:25:32;5.50;;;4.23;;
7080;SDS011;3582;51.506;11.948;2023-08-21T13:28:00;6.53;;;4.83;;
7080;SDS011;3582;51.506;11.948;2023-08-21T13:30:26;4.97;;;4.33;;
7080;SDS011;3582;51.506;11.948;2023-08-21T13:32:52;11.77;;;4.80;;
7080;SDS011;3582;51.506;11.948;2023-08-21T13:35:19;4.80;;;4.40;;
7080;SDS011;3582;51.506;11.948;2023-08-21T13:37:47;5.80;;;4.50;;
7080;SDS011;3582;51.506;11.948;2023-08-21T13:40:13;9.50;;;4.83;;
7080;SDS011;3582;51.506;11.948;2023-08-21T13:42:42;4.60;;;4.17;;
7080;SDS011;3582;51.506;11.948;2023-08-21T13:45:08;4.73;;;4.17;;
7080;SDS011;3582;51.506;11.948;2023-08-21T13:47:36;7.23;;;6.60;;
7080;SDS011;3582;51.506;11.948;2023-08-21T13:50:02;4.57;;;4.17;;
7080;SDS011;3582;51.506;11.948;2023-08-21T13:52:30;4.83;;;4.37;;
7080;SDS011;3582;51.506;11.948;2023-08-21T13:54:56;4.00;;;3.70;;
7080;SDS011;3582;51.506;11.948;2023-08-21T13:57:22;3.97;;;3.53;;
7080;SDS011;3582;51.506;11.948;2023-08-21T13:59:48;4.13;;;3.43;;
7080;SDS011;3582;51.506;11.948;2023-08-21T14:02:14;3.77;;;3.47;;
7080;SDS011;3582;51.506;11.948;2023-08-21T14:04:39;5.17;;;4.67;;
7080;SDS011;3582;51.506;11.948;2023-08-21T14:07:05;4.50;;;4.10;;
7080;SDS011;3582;51.506;11.948;2023-08-21T14:09:31;5.93;;;4.87;;
7080;SDS011;3582;51.506;11.948;2023-08-21T14:11:57;4.80;;;3.30;;
7080;SDS011;3582;51.506;11.948;2023-08-21T14:14:23;4.57;;;4.17;;
7080;SDS011;3582;51.506;11.948;2023-08-21T14:16:49;5.20;;;4.70;;
7080;SDS011;3582;51.506;11.948;2023-08-21T14:19:15;5.43;;;3.93;;
7080;SDS011;3582;51.506;11.948;2023-08-21T14:21:41;4.53;;;4.13;;
7080;SDS011;3582;51.506;11.948;2023-08-21T14:24:07;5.17;;;3.97;;
7080;SDS011;3582;51.506;11.948;2023-08-21T14:26:33;3.97;;;3.57;;
7080;SDS011;3582;51.506;11.948;2023-08-21T14:28:59;8.30;;;4.00;;
7080;SDS011;3582;51.506;11.948;2023-08-21T14:31:25;4.37;;;3.70;;
7080;SDS011;3582;51.506;11.948;2023-08-21T14:33:52;4.83;;;4.23;;
7080;SDS011;3582;51.506;11.948;2023-08-21T14:36:18;4.50;;;3.93;;
7080;SDS011;3582;51.506;11.948;2023-08-21T14:38:44;5.10;;;4.60;;
7080;SDS011;3582;51.506;11.948;2023-08-21T14:41:10;4.77;;;4.07;;
7080;SDS011;3582;51.506;11.948;2023-08-21T14:43:36;5.83;;;4.07;;
7080;SDS011;3582;51.506;11.948;2023-08-21T14:46:02;5.00;;;3.50;;
7080;SDS011;3582;51.506;11.948;2023-08-21T14:48:29;5.60;;;3.30;;
7080;SDS011;3582;51.506;11.948;2023-08-21T14:50:55;3.90;;;3.43;;
7080;SDS011;3582;51.506;11.948;2023-08-21T14:53:21;3.93;;;3.53;;
7080;SDS011;3582;51.506;11.948;2023-08-21T14:55:47;4.50;;;4.10;;
7080;SDS011;3582;51.506;11.948;2023-08-21T14:58:13;3.93;;;3.67;;